createdAt,value
2023-07-23T00:02:29.298Z,96273.16
2023-07-23T00:05:26.629Z,96270.94
2023-07-23T00:08:23.553Z,96272.91
2023-07-23T00:11:20.411Z,96275.94
2023-07-23T00:14:17.279Z,96264.84
2023-07-23T00:17:14.143Z,96264.25
2023-07-23T00:20:12.692Z,96266.53
2023-07-23T00:23:09.628Z,96263.66
2023-07-23T00:26:06.510Z,96268.91
2023-07-23T00:29:03.367Z,96263.72
2023-07-23T00:32:00.236Z,96254.88
2023-07-23T00:34:57.133Z,96253.56
2023-07-23T00:37:54.010Z,96251.66
2023-07-23T00:40:50.930Z,96256.44
2023-07-23T00:43:47.858Z,96259.78
2023-07-23T00:46:45.695Z,96257.44
2023-07-23T00:49:42.651Z,96245.88
2023-07-23T00:52:39.551Z,96254.63
2023-07-23T00:55:36.435Z,96237.34
2023-07-23T00:58:33.907Z,96233.44
2023-07-23T01:01:31.857Z,96236.25
2023-07-23T01:04:30.490Z,96231.38
2023-07-23T01:07:29.063Z,96232.22
2023-07-23T01:10:26.936Z,96232.16
2023-07-23T01:13:24.155Z,96226.97
2023-07-23T01:16:21.478Z,96225.41
2023-07-23T01:19:19.096Z,96217.94
2023-07-23T01:22:16.080Z,96219.66
2023-07-23T01:25:12.948Z,96220.03
2023-07-23T01:28:09.802Z,96225.88
2023-07-23T01:31:08.541Z,96220.72
2023-07-23T01:34:06.649Z,96221.44
2023-07-23T01:37:03.668Z,96221.44
2023-07-23T01:40:00.603Z,96222.84
2023-07-23T01:42:57.997Z,96221.00
2023-07-23T01:45:55.286Z,96222.19
2023-07-23T01:48:52.276Z,96217.97
2023-07-23T01:51:49.117Z,96212.91
2023-07-23T01:54:45.966Z,96210.09
2023-07-23T01:57:42.845Z,96208.72
2023-07-23T02:00:39.752Z,96205.94
2023-07-23T02:03:36.756Z,96196.53
2023-07-23T02:06:35.959Z,96203.56
2023-07-23T02:09:33.927Z,96203.09
2023-07-23T02:12:30.772Z,96200.13
2023-07-23T02:15:27.704Z,96202.28
2023-07-23T02:18:24.666Z,96197.88
2023-07-23T02:21:21.651Z,96199.47
2023-07-23T02:24:18.652Z,96198.22
2023-07-23T02:27:16.361Z,96197.91
2023-07-23T02:30:13.295Z,96205.63
2023-07-23T02:33:10.217Z,96204.53
2023-07-23T02:36:07.171Z,96203.09
2023-07-23T02:39:04.292Z,96202.25
2023-07-23T02:42:01.136Z,96197.13
2023-07-23T02:44:57.992Z,96199.75
2023-07-23T02:47:54.867Z,96197.88
2023-07-23T02:50:54.553Z,96198.22
2023-07-23T02:53:51.455Z,96201.69
2023-07-23T02:56:48.310Z,96194.88
2023-07-23T02:59:45.189Z,96201.50
2023-07-23T03:02:42.235Z,96194.31
2023-07-23T03:05:39.336Z,96197.56
2023-07-23T03:08:36.963Z,96197.56
2023-07-23T03:11:33.884Z,96206.25
2023-07-23T03:14:31.350Z,96200.34
2023-07-23T03:17:28.373Z,96189.16
2023-07-23T03:20:25.258Z,96195.88
2023-07-23T03:23:22.236Z,96194.16
2023-07-23T03:26:19.090Z,96193.06
2023-07-23T03:29:16.023Z,96187.97
2023-07-23T03:32:12.898Z,96193.16
2023-07-23T03:35:09.886Z,96196.59
2023-07-23T03:38:06.794Z,96196.59
2023-07-23T03:41:03.741Z,96194.13
2023-07-23T03:44:00.628Z,96194.31
2023-07-23T03:47:07.358Z,96192.81
2023-07-23T03:50:04.781Z,96191.28
2023-07-23T03:53:01.650Z,96191.09
2023-07-23T03:55:58.497Z,96191.47
2023-07-23T03:58:55.376Z,96191.28
2023-07-23T04:01:52.259Z,96193.59
2023-07-23T04:04:49.153Z,96181.38
2023-07-23T04:07:46.025Z,96187.09
2023-07-23T04:10:42.875Z,96191.78
2023-07-23T04:13:39.808Z,96189.13
2023-07-23T04:16:36.783Z,96178.69
2023-07-23T04:19:33.640Z,96186.81
2023-07-23T04:22:30.556Z,96178.47
2023-07-23T04:25:27.429Z,96182.22
2023-07-23T04:28:24.290Z,96186.91
2023-07-23T04:31:21.294Z,96186.44
2023-07-23T04:34:18.186Z,96180.06
2023-07-23T04:37:16.121Z,96172.66
2023-07-23T04:40:13.518Z,96182.22
2023-07-23T04:43:10.435Z,96171.84
2023-07-23T04:46:07.464Z,96181.84
2023-07-23T04:49:04.375Z,96176.03
2023-07-23T04:52:01.226Z,96176.00
2023-07-23T04:54:58.073Z,96177.06
2023-07-23T04:57:55.180Z,96177.59
2023-07-23T05:00:53.090Z,96171.28
2023-07-23T05:03:50.975Z,96172.56
2023-07-23T05:06:48.721Z,96174.34
2023-07-23T05:09:45.604Z,96166.00
2023-07-23T05:12:42.580Z,96162.69
2023-07-23T05:15:39.518Z,96161.47
2023-07-23T05:18:36.459Z,96155.91
2023-07-23T05:21:35.820Z,96153.88
2023-07-23T05:24:32.842Z,96158.78
2023-07-23T05:27:30.135Z,96143.78
2023-07-23T05:30:27.062Z,96146.56
2023-07-23T05:33:23.967Z,96138.38
2023-07-23T05:36:20.840Z,96137.53
2023-07-23T05:39:17.751Z,96135.69
2023-07-23T05:42:14.684Z,96123.91
2023-07-23T05:45:11.608Z,96132.09
2023-07-23T05:48:08.506Z,96131.59
2023-07-23T05:51:05.520Z,96128.50
2023-07-23T05:54:02.414Z,96126.19
2023-07-23T05:57:00.629Z,96128.88
2023-07-23T05:59:57.697Z,96129.25
2023-07-23T06:02:54.709Z,96130.91
2023-07-23T06:05:51.762Z,96135.28
2023-07-23T06:08:48.912Z,96130.72
2023-07-23T06:11:45.844Z,96129.38
2023-07-23T06:14:45.746Z,96121.19
2023-07-23T06:17:42.773Z,96126.69
2023-07-23T06:20:39.763Z,96121.94
2023-07-23T06:23:36.955Z,96123.81
2023-07-23T06:26:33.909Z,96119.97
2023-07-23T06:29:30.778Z,96120.44
2023-07-23T06:32:27.813Z,96125.13
2023-07-23T06:35:24.708Z,96116.94
2023-07-23T06:38:21.593Z,96125.47
2023-07-23T06:41:20.162Z,96122.28
2023-07-23T06:44:17.323Z,96116.38
2023-07-23T06:47:15.042Z,96123.53
2023-07-23T06:50:12.027Z,96116.31
2023-07-23T06:53:08.925Z,96119.19
2023-07-23T06:56:11.311Z,96112.81
2023-07-23T06:59:08.228Z,96125.16
2023-07-23T07:02:05.583Z,96125.94
2023-07-23T07:05:02.519Z,96124.00
2023-07-23T07:07:59.367Z,96123.91
2023-07-23T07:11:04.907Z,96116.06
2023-07-23T07:14:01.865Z,96109.88
2023-07-23T07:16:58.810Z,96119.66
2023-07-23T07:19:55.654Z,96119.97
2023-07-23T07:22:52.533Z,96114.56
2023-07-23T07:25:49.415Z,96110.19
2023-07-23T07:28:46.319Z,96109.59
2023-07-23T07:31:43.340Z,96119.69
2023-07-23T07:34:41.441Z,96108.75
2023-07-23T07:37:38.416Z,96105.41
2023-07-23T07:40:40.311Z,96113.16
2023-07-23T07:43:37.288Z,96124.50
2023-07-23T07:46:34.287Z,96106.88
2023-07-23T07:49:31.176Z,96115.09
2023-07-23T07:52:28.282Z,96102.94
2023-07-23T07:55:25.200Z,96109.50
2023-07-23T07:58:28.951Z,96091.00
2023-07-23T08:01:26.614Z,96095.22
2023-07-23T08:04:24.709Z,96089.22
2023-07-23T08:07:22.884Z,96094.72
2023-07-23T08:10:20.227Z,96087.84
2023-07-23T08:13:18.406Z,96106.22
2023-07-23T08:16:18.048Z,96098.19
2023-07-23T08:19:15.444Z,96090.69
2023-07-23T08:22:12.957Z,96080.97
2023-07-23T08:25:11.117Z,96077.38
2023-07-23T08:28:09.038Z,96072.97
2023-07-23T08:31:06.400Z,96076.97
2023-07-23T08:34:04.506Z,96072.97
2023-07-23T08:37:01.759Z,96058.19
2023-07-23T08:39:59.207Z,96063.41
2023-07-23T08:42:56.049Z,96069.88
2023-07-23T08:46:23.105Z,96062.72
2023-07-23T08:49:23.844Z,96065.38
2023-07-23T08:52:23.542Z,96065.06
2023-07-23T08:55:20.630Z,96072.38
2023-07-23T08:58:19.994Z,96073.13
2023-07-23T09:01:17.811Z,96063.03
2023-07-23T09:04:15.126Z,96080.88
2023-07-23T09:07:13.620Z,96065.31
2023-07-23T09:10:10.613Z,96068.47
2023-07-23T09:13:17.471Z,96082.47
2023-07-23T09:16:14.353Z,96073.22
2023-07-23T09:19:13.726Z,96071.25
2023-07-23T09:22:10.625Z,96065.06
2023-07-23T09:25:08.042Z,96059.19
2023-07-23T09:28:05.932Z,96045.56
2023-07-23T09:31:02.877Z,96051.00
2023-07-23T09:34:01.805Z,96045.50
2023-07-23T09:36:58.705Z,96029.44
2023-07-23T09:39:57.779Z,96048.50
2023-07-23T09:42:56.486Z,96048.53
2023-07-23T09:45:53.712Z,96043.47
2023-07-23T09:48:52.529Z,96036.16
2023-07-23T09:51:53.375Z,96037.06
2023-07-23T09:54:52.347Z,96025.69
2023-07-23T09:57:54.109Z,96031.75
2023-07-23T10:00:51.674Z,96042.50
2023-07-23T10:03:49.949Z,96026.44
2023-07-23T10:06:49.554Z,96014.75
2023-07-23T10:09:49.108Z,96009.47
2023-07-23T10:12:46.086Z,96014.72
2023-07-23T10:15:43.468Z,96026.16
2023-07-23T10:18:42.614Z,96008.28
2023-07-23T10:21:39.527Z,96005.25
2023-07-23T10:24:41.330Z,96003.81
2023-07-23T10:27:40.039Z,96001.59
2023-07-23T10:30:38.214Z,95995.72
2023-07-23T10:33:35.493Z,96001.13
2023-07-23T10:36:52.307Z,96025.47
2023-07-23T10:39:51.780Z,96003.88
2023-07-23T10:42:48.720Z,96007.06
2023-07-23T10:46:03.696Z,96008.81
2023-07-23T10:49:04.696Z,96007.66
2023-07-23T10:52:17.634Z,96015.84
2023-07-23T10:55:46.279Z,96014.81
2023-07-23T10:58:44.322Z,96002.13
2023-07-23T11:01:43.409Z,96006.47
2023-07-23T11:04:40.354Z,96031.81
2023-07-23T11:07:37.970Z,96013.84
2023-07-23T11:10:57.465Z,96020.13
2023-07-23T11:13:55.898Z,96027.09
2023-07-23T11:17:00.900Z,96034.06
2023-07-23T11:19:58.840Z,96042.75
2023-07-23T11:22:59.511Z,96052.94
2023-07-23T11:25:56.416Z,96051.78
2023-07-23T11:28:53.310Z,96046.72
2023-07-23T11:31:50.330Z,96040.09
2023-07-23T11:34:47.415Z,96037.78
2023-07-23T11:37:50.852Z,96036.56
2023-07-23T11:40:53.928Z,96048.28
2023-07-23T11:43:50.862Z,96048.31
2023-07-23T11:46:48.186Z,96051.78
2023-07-23T11:49:45.102Z,96058.81
2023-07-23T11:52:42.024Z,96048.69
2023-07-23T11:55:38.954Z,96058.81
2023-07-23T11:58:37.607Z,96055.69
2023-07-23T12:01:37.613Z,96045.94
2023-07-23T12:04:40.713Z,96044.78
2023-07-23T12:07:37.629Z,96030.38
2023-07-23T12:10:35.172Z,96034.66
2023-07-23T12:13:32.061Z,96017.53
2023-07-23T12:16:36.043Z,96019.06
2023-07-23T12:19:33.566Z,96025.31
2023-07-23T12:22:33.293Z,96029.19
2023-07-23T12:25:30.216Z,96025.66
2023-07-23T12:28:28.560Z,96024.50
2023-07-23T12:31:26.052Z,96021.78
2023-07-23T12:34:23.407Z,96014.44
2023-07-23T12:37:22.189Z,96005.44
2023-07-23T12:40:20.087Z,96007.38
2023-07-23T12:43:16.949Z,95999.97
2023-07-23T12:46:13.835Z,96003.84
2023-07-23T12:49:10.740Z,96001.88
2023-07-23T12:52:08.892Z,96005.00
2023-07-23T12:55:06.754Z,96006.19
2023-07-23T12:58:03.648Z,96012.84
2023-07-23T13:01:00.560Z,96015.56
2023-07-23T13:03:57.698Z,96010.09
2023-07-23T13:06:54.573Z,96003.50
2023-07-23T13:09:51.465Z,96004.28
2023-07-23T13:12:48.494Z,96006.97
2023-07-23T13:15:45.409Z,95989.84
2023-07-23T13:18:42.281Z,95992.97
2023-07-23T13:21:39.134Z,95989.84
2023-07-23T13:24:36.030Z,95990.66
2023-07-23T13:27:32.960Z,95991.03
2023-07-23T13:30:29.854Z,95987.88
2023-07-23T13:33:26.806Z,95987.09
2023-07-23T13:36:23.711Z,95988.31
2023-07-23T13:39:20.576Z,95981.69
2023-07-23T13:42:22.444Z,95985.59
2023-07-23T13:45:19.364Z,95978.97
2023-07-23T13:48:16.230Z,95977.78
2023-07-23T13:51:13.103Z,95977.00
2023-07-23T13:54:09.953Z,95989.47
2023-07-23T13:57:07.246Z,95980.94
2023-07-23T14:00:05.114Z,95976.56
2023-07-23T14:03:02.123Z,95988.69
2023-07-23T14:05:59.013Z,95981.72
2023-07-23T14:08:55.901Z,95991.03
2023-07-23T14:11:52.832Z,95990.25
2023-07-23T14:14:49.678Z,95997.25
2023-07-23T14:17:46.553Z,95991.44
2023-07-23T14:20:43.491Z,95982.06
2023-07-23T14:23:40.395Z,95985.19
2023-07-23T14:26:37.243Z,95977.03
2023-07-23T14:29:35.412Z,95972.34
2023-07-23T14:32:32.548Z,95978.97
2023-07-23T14:35:31.368Z,95961.44
2023-07-23T14:38:28.468Z,95960.66
2023-07-23T14:41:25.325Z,95964.16
2023-07-23T14:44:22.324Z,95960.25
2023-07-23T14:47:19.313Z,95954.03
2023-07-23T14:50:16.296Z,95945.06
2023-07-23T14:53:13.549Z,95933.81
2023-07-23T14:56:10.428Z,95943.91
2023-07-23T14:59:07.301Z,95947.00
2023-07-23T15:02:04.640Z,95945.38
2023-07-23T15:05:01.592Z,95939.59
2023-07-23T15:07:58.466Z,95933.34
2023-07-23T15:10:55.350Z,95937.66
2023-07-23T15:13:52.544Z,95934.47
2023-07-23T15:16:49.867Z,95927.09
2023-07-23T15:19:47.261Z,95927.13
2023-07-23T15:22:44.529Z,95921.63
2023-07-23T15:25:41.767Z,95934.13
2023-07-23T15:28:40.648Z,95942.66
2023-07-23T15:31:37.581Z,95944.25
2023-07-23T15:34:34.463Z,95940.75
2023-07-23T15:37:31.381Z,95938.00
2023-07-23T15:40:28.253Z,95942.28
2023-07-23T15:43:25.109Z,95947.28
2023-07-23T15:46:22.050Z,95944.59
2023-07-23T15:49:19.031Z,95942.25
2023-07-23T15:52:15.962Z,95957.44
2023-07-23T15:55:13.695Z,95949.66
2023-07-23T15:58:10.595Z,95950.03
2023-07-23T16:01:07.487Z,95951.97
2023-07-23T16:04:04.905Z,95949.69
2023-07-23T16:07:01.850Z,95947.72
2023-07-23T16:09:58.731Z,95944.63
2023-07-23T16:12:57.029Z,95949.69
2023-07-23T16:15:54.065Z,95943.44
2023-07-23T16:18:53.166Z,95953.19
2023-07-23T16:21:50.209Z,95947.75
2023-07-23T16:24:47.126Z,95952.81
2023-07-23T16:27:44.571Z,95946.22
2023-07-23T16:30:42.519Z,95941.16
2023-07-23T16:33:40.247Z,95941.91
2023-07-23T16:36:41.231Z,95941.13
2023-07-23T16:39:38.363Z,95944.66
2023-07-23T16:42:37.237Z,95943.50
2023-07-23T16:45:34.184Z,95942.72
2023-07-23T16:48:31.376Z,95939.59
2023-07-23T16:51:28.603Z,95935.72
2023-07-23T16:54:26.110Z,95926.75
2023-07-23T16:57:24.605Z,95918.53
2023-07-23T17:00:22.456Z,95924.41
2023-07-23T17:03:20.544Z,95926.75
2023-07-23T17:06:17.629Z,95929.84
2023-07-23T17:09:14.483Z,95925.56
2023-07-23T17:12:11.440Z,95920.94
2023-07-23T17:15:08.800Z,95918.63
2023-07-23T17:18:05.735Z,95925.22
2023-07-23T17:21:02.662Z,95914.72
2023-07-23T17:23:59.588Z,95916.66
2023-07-23T17:26:56.490Z,95919.00
2023-07-23T17:29:53.554Z,95924.06
2023-07-23T17:32:50.479Z,95925.22
2023-07-23T17:35:47.510Z,95923.66
2023-07-23T17:38:44.482Z,95920.16
2023-07-23T17:41:41.493Z,95930.28
2023-07-23T17:44:38.623Z,95932.22
2023-07-23T17:47:35.529Z,95941.59
2023-07-23T17:50:32.417Z,95937.28
2023-07-23T17:53:30.189Z,95950.13
2023-07-23T17:56:27.911Z,95931.84
2023-07-23T17:59:25.197Z,95938.44
2023-07-23T18:02:22.959Z,95929.50
2023-07-23T18:05:19.973Z,95925.22
2023-07-23T18:08:16.849Z,95920.53
2023-07-23T18:11:13.736Z,95937.66
2023-07-23T18:14:10.675Z,95935.72
2023-07-23T18:17:08.264Z,95927.19
2023-07-23T18:20:06.489Z,95925.97
2023-07-23T18:23:03.415Z,95925.19
2023-07-23T18:26:05.916Z,95919.38
2023-07-23T18:29:03.673Z,95911.56
2023-07-23T18:32:00.656Z,95906.53
2023-07-23T18:34:57.904Z,95910.38
2023-07-23T18:37:54.766Z,95917.00
2023-07-23T18:40:58.612Z,95909.25
2023-07-23T18:43:55.527Z,95914.19
2023-07-23T18:46:52.423Z,95915.72
2023-07-23T18:49:49.848Z,95914.19
2023-07-23T18:52:46.706Z,95912.97
2023-07-23T18:55:43.855Z,95912.97
2023-07-23T18:58:41.548Z,95922.22
2023-07-23T19:01:38.434Z,95924.16
2023-07-23T19:04:46.609Z,95924.91
2023-07-23T19:07:43.724Z,95917.06
2023-07-23T19:10:40.611Z,95920.56
2023-07-23T19:13:37.469Z,95924.44
2023-07-23T19:16:34.773Z,95920.81
2023-07-23T19:19:31.837Z,95920.03
2023-07-23T19:22:28.717Z,95922.75
2023-07-23T19:25:25.656Z,95925.16
2023-07-23T19:28:22.527Z,95925.81
2023-07-23T19:31:19.412Z,95926.00
2023-07-23T19:34:16.400Z,95924.06
2023-07-23T19:37:13.268Z,95923.28
2023-07-23T19:40:11.199Z,95930.94
2023-07-23T19:43:08.111Z,95925.47
2023-07-23T19:46:05.100Z,95919.63
2023-07-23T19:49:02.040Z,95929.78
2023-07-23T19:51:58.911Z,95921.66
2023-07-23T19:54:55.773Z,95922.03
2023-07-23T19:57:52.729Z,95921.50
2023-07-23T20:00:50.210Z,95923.06
2023-07-23T20:03:47.094Z,95925.78
2023-07-23T20:06:43.968Z,95935.78
2023-07-23T20:09:40.858Z,95937.63
2023-07-23T20:12:38.219Z,95933.41
2023-07-23T20:15:35.100Z,95932.25
2023-07-23T20:18:34.047Z,95947.28
2023-07-23T20:21:43.095Z,95938.41
2023-07-23T20:24:41.237Z,95933.22
2023-07-23T20:27:38.357Z,95940.50
2023-07-23T20:30:36.186Z,95943.81
2023-07-23T20:33:33.566Z,95946.34
2023-07-23T20:36:31.088Z,95946.31
2023-07-23T20:39:28.567Z,95944.31
2023-07-23T20:42:25.846Z,95943.81
2023-07-23T20:45:22.716Z,95943.81
2023-07-23T20:48:19.598Z,95944.66
2023-07-23T20:51:16.453Z,95938.69
2023-07-23T20:54:13.343Z,95938.06
2023-07-23T20:57:10.193Z,95948.13
2023-07-23T21:00:07.841Z,95940.41
2023-07-23T21:03:04.798Z,95943.13
2023-07-23T21:06:01.720Z,95936.94
2023-07-23T21:08:58.619Z,95938.31
2023-07-23T21:11:55.488Z,95944.66
2023-07-23T21:14:52.395Z,95940.97
2023-07-23T21:17:49.311Z,95933.13
2023-07-23T21:20:49.777Z,95938.47
2023-07-23T21:23:46.630Z,95930.16
2023-07-23T21:26:44.314Z,95921.47
2023-07-23T21:29:41.244Z,95924.22
2023-07-23T21:32:38.281Z,95916.16
2023-07-23T21:35:43.054Z,95925.47
2023-07-23T21:38:39.969Z,95924.25
2023-07-23T21:41:36.828Z,95927.75
2023-07-23T21:44:34.321Z,95933.75
2023-07-23T21:47:31.226Z,95933.88
2023-07-23T21:50:28.741Z,95922.34
2023-07-23T21:53:25.631Z,95921.34
2023-07-23T21:56:22.533Z,95922.22
2023-07-23T21:59:19.390Z,95918.34
2023-07-23T22:02:16.267Z,95920.28
2023-07-23T22:05:13.401Z,95918.47
2023-07-23T22:08:10.302Z,95915.13
2023-07-23T22:11:07.167Z,95914.34
2023-07-23T22:14:05.856Z,95904.19
2023-07-23T22:17:02.758Z,95909.53
2023-07-23T22:19:59.597Z,95892.97
2023-07-23T22:22:56.482Z,95905.88
2023-07-23T22:25:55.253Z,95905.56
2023-07-23T22:28:52.121Z,95902.38
2023-07-23T22:31:49.097Z,95911.66
2023-07-23T22:34:47.583Z,95910.00
2023-07-23T22:37:44.497Z,95902.94
2023-07-23T22:40:41.672Z,95892.56
2023-07-23T22:43:41.296Z,95899.72
2023-07-23T22:46:44.809Z,95891.03
2023-07-23T22:49:41.749Z,95891.81
2023-07-23T22:52:38.620Z,95889.47
2023-07-23T22:55:35.547Z,95884.16
2023-07-23T22:58:32.406Z,95884.22
2023-07-23T23:01:29.350Z,95893.75
2023-07-23T23:04:26.269Z,95883.69
2023-07-23T23:07:23.146Z,95882.88
2023-07-23T23:10:20.069Z,95883.91
2023-07-23T23:13:16.937Z,95882.88
2023-07-23T23:16:13.842Z,95877.84
2023-07-23T23:19:10.739Z,95869.75
2023-07-23T23:22:07.723Z,95873.59
2023-07-23T23:25:05.620Z,95872.78
2023-07-23T23:28:02.597Z,95875.63
2023-07-23T23:30:59.486Z,95880.19
2023-07-23T23:33:56.321Z,95872.09
2023-07-23T23:36:53.253Z,95872.56
2023-07-23T23:39:50.644Z,95861.81
2023-07-23T23:42:47.604Z,95864.75
2023-07-23T23:45:44.482Z,95867.47
2023-07-23T23:48:41.337Z,95853.16
2023-07-23T23:51:38.233Z,95861.94
2023-07-23T23:54:35.097Z,95857.69
2023-07-23T23:57:31.973Z,95847.97
